createdAt,value
2023-03-22T00:01:11.687Z,32.02
2023-03-22T00:05:11.813Z,29.13
2023-03-22T00:09:11.864Z,27.41
2023-03-22T00:13:11.974Z,31.67
2023-03-22T00:17:12.073Z,28.90
2023-03-22T00:21:12.196Z,28.72
2023-03-22T00:25:12.299Z,29.81
2023-03-22T00:29:12.365Z,28.17
2023-03-22T00:33:12.514Z,30.17
2023-03-22T00:37:12.605Z,29.29
2023-03-22T00:41:12.712Z,27.94
2023-03-22T00:45:12.848Z,28.76
2023-03-22T00:49:12.955Z,28.84
2023-03-22T00:53:13.081Z,32.20
2023-03-22T00:57:13.204Z,31.92
2023-03-22T01:01:13.397Z,32.49
2023-03-22T01:05:13.425Z,32.50
2023-03-22T01:09:13.568Z,33.50
2023-03-22T01:13:13.713Z,32.93
2023-03-22T01:17:13.866Z,35.75
2023-03-22T01:21:13.958Z,33.06
2023-03-22T01:25:14.117Z,35.67
2023-03-22T01:29:14.219Z,31.97
2023-03-22T01:33:14.360Z,34.39
2023-03-22T01:37:14.515Z,33.95
2023-03-22T01:41:14.643Z,33.60
2023-03-22T01:45:14.800Z,34.88
2023-03-22T01:49:14.933Z,35.98
2023-03-22T01:53:15.032Z,38.85
2023-03-22T01:57:15.152Z,34.79
2023-03-22T02:01:15.284Z,33.68
2023-03-22T02:05:15.383Z,39.30
2023-03-22T02:09:15.509Z,36.42
2023-03-22T02:13:15.599Z,38.11
2023-03-22T02:17:15.690Z,39.73
2023-03-22T02:21:15.789Z,39.42
2023-03-22T02:25:15.912Z,40.03
2023-03-22T02:29:16.013Z,41.19
2023-03-22T02:33:16.111Z,35.82
2023-03-22T02:37:16.241Z,42.10
2023-03-22T02:41:16.321Z,39.90
2023-03-22T02:45:16.452Z,37.29
2023-03-22T02:49:16.561Z,34.50
2023-03-22T02:53:16.666Z,39.03
2023-03-22T02:57:16.784Z,39.06
2023-03-22T03:01:16.972Z,37.07
2023-03-22T03:05:17.029Z,35.75
2023-03-22T03:09:17.123Z,35.85
2023-03-22T03:13:17.268Z,38.01
2023-03-22T03:17:17.395Z,34.90
2023-03-22T03:21:17.554Z,36.86
2023-03-22T03:25:17.669Z,33.47
2023-03-22T03:29:17.804Z,34.83
2023-03-22T03:33:17.935Z,29.83
2023-03-22T03:37:18.088Z,29.05
2023-03-22T03:41:18.213Z,34.27
2023-03-22T03:45:18.339Z,32.29
2023-03-22T03:49:18.501Z,33.27
2023-03-22T03:53:18.618Z,29.16
2023-03-22T03:57:18.781Z,34.73
2023-03-22T04:01:18.884Z,30.05
2023-03-22T04:05:19.026Z,28.73
2023-03-22T04:09:19.142Z,27.56
2023-03-22T04:13:19.273Z,31.84
2023-03-22T04:17:19.410Z,31.84
2023-03-22T04:21:19.535Z,30.67
2023-03-22T04:25:19.680Z,29.98
2023-03-22T04:29:19.816Z,31.72
2023-03-22T04:33:19.957Z,31.30
2023-03-22T04:37:20.096Z,31.06
2023-03-22T04:41:20.236Z,31.99
2023-03-22T04:45:20.370Z,31.75
2023-03-22T04:49:20.523Z,29.40
2023-03-22T04:53:20.658Z,31.77
2023-03-22T04:57:20.803Z,30.27
2023-03-22T05:01:20.974Z,29.96
2023-03-22T05:05:21.074Z,31.05
2023-03-22T05:09:23.348Z,33.04
2023-03-22T05:13:21.335Z,37.21
2023-03-22T05:17:21.529Z,36.82
2023-03-22T05:21:21.667Z,34.00
2023-03-22T05:25:21.850Z,35.47
2023-03-22T05:29:21.954Z,38.53
2023-03-22T05:33:22.109Z,39.33
2023-03-22T05:37:22.289Z,35.94
2023-03-22T05:41:22.413Z,38.00
2023-03-22T05:45:22.536Z,40.50
2023-03-22T05:49:22.675Z,42.02
2023-03-22T05:53:22.773Z,43.00
2023-03-22T05:57:22.852Z,42.60
2023-03-22T06:01:22.952Z,44.68
2023-03-22T06:05:22.992Z,49.74
2023-03-22T06:09:23.054Z,48.96
2023-03-22T06:13:23.213Z,50.21
2023-03-22T06:17:23.215Z,48.74
2023-03-22T06:21:23.204Z,51.19
2023-03-22T06:25:23.230Z,50.71
2023-03-22T06:29:23.253Z,55.94
2023-03-22T06:33:23.300Z,63.54
2023-03-22T06:37:23.311Z,52.68
2023-03-22T06:41:23.621Z,72.55
2023-03-22T06:45:23.634Z,269.11
2023-03-22T06:49:23.630Z,151.81
2023-03-22T06:53:23.649Z,134.84
2023-03-22T06:57:23.835Z,293.57
2023-03-22T07:01:24.166Z,147.36
2023-03-22T07:05:23.790Z,128.91
2023-03-22T07:09:23.726Z,117.57
2023-03-22T07:13:23.694Z,113.84
2023-03-22T07:17:23.662Z,106.89
2023-03-22T07:21:23.630Z,103.01
2023-03-22T07:25:23.607Z,103.61
2023-03-22T07:29:23.539Z,100.00
2023-03-22T07:33:23.530Z,85.37
2023-03-22T07:37:23.749Z,87.44
2023-03-22T07:41:23.999Z,84.94
2023-03-22T07:45:24.194Z,72.13
2023-03-22T07:49:24.324Z,71.70
2023-03-22T07:53:24.504Z,75.64
2023-03-22T07:57:24.665Z,134.50
2023-03-22T08:01:24.908Z,167.20
2023-03-22T08:05:24.931Z,168.50
2023-03-22T08:09:25.066Z,159.48
2023-03-22T08:13:25.180Z,164.55
2023-03-22T08:17:25.274Z,176.61
2023-03-22T08:21:25.475Z,167.85
2023-03-22T08:25:25.488Z,157.15
2023-03-22T08:29:25.709Z,151.68
2023-03-22T08:33:25.685Z,113.67
2023-03-22T08:37:25.824Z,128.17
2023-03-22T08:41:26.188Z,131.82
2023-03-22T08:45:26.040Z,127.71
2023-03-22T08:49:26.168Z,101.75
2023-03-22T08:53:26.296Z,141.41
2023-03-22T08:57:26.449Z,130.74
2023-03-22T09:01:26.691Z,124.73
2023-03-22T09:05:26.775Z,11.66
2023-03-22T09:09:26.895Z,0.00
2023-03-22T09:13:26.922Z,38.36
2023-03-22T09:17:27.206Z,44.84
2023-03-22T09:21:26.908Z,34.23
2023-03-22T09:25:27.089Z,26.36
2023-03-22T09:29:27.221Z,35.45
2023-03-22T09:33:27.468Z,37.49
2023-03-22T09:37:27.732Z,26.34
2023-03-22T09:41:27.719Z,42.49
2023-03-22T09:45:27.936Z,79.75
2023-03-22T09:49:28.047Z,114.81
2023-03-22T09:53:28.053Z,118.71
2023-03-22T09:57:28.229Z,110.42
2023-03-22T10:01:28.424Z,122.54
2023-03-22T10:05:28.268Z,92.97
2023-03-22T10:09:28.403Z,124.59
2023-03-22T10:13:28.370Z,124.20
2023-03-22T10:17:28.392Z,140.02
2023-03-22T10:21:28.285Z,132.49
2023-03-22T10:25:28.400Z,142.66
2023-03-22T10:29:28.732Z,82.47
2023-03-22T10:33:28.180Z,102.57
2023-03-22T10:37:28.160Z,125.24
2023-03-22T10:41:28.132Z,138.25
2023-03-22T10:45:28.096Z,133.83
2023-03-22T10:49:28.091Z,139.94
2023-03-22T10:53:28.238Z,140.12
2023-03-22T10:57:28.243Z,136.75
2023-03-22T11:01:28.366Z,140.21
2023-03-22T11:05:28.346Z,142.97
2023-03-22T11:09:28.473Z,146.73
2023-03-22T11:13:28.752Z,147.24
2023-03-22T11:17:29.236Z,146.57
2023-03-22T11:21:28.895Z,136.16
2023-03-22T11:25:29.077Z,71.46
2023-03-22T11:29:29.193Z,28.02
2023-03-22T11:33:29.370Z,31.75
2023-03-22T11:37:29.596Z,18.39
2023-03-22T11:41:29.800Z,43.93
2023-03-22T11:45:30.062Z,38.59
2023-03-22T11:49:30.039Z,61.25
2023-03-22T11:53:30.172Z,84.82
2023-03-22T11:57:30.404Z,73.76
2023-03-22T12:01:30.344Z,76.65
2023-03-22T12:05:30.774Z,91.13
2023-03-22T12:09:30.783Z,126.85
2023-03-22T12:13:30.313Z,62.81
2023-03-22T12:17:30.321Z,23.15
2023-03-22T12:21:30.226Z,34.56
2023-03-22T12:25:30.271Z,36.16
2023-03-22T12:29:30.095Z,43.50
2023-03-22T12:33:30.148Z,36.58
2023-03-22T12:37:31.388Z,45.23
2023-03-22T12:41:30.008Z,39.95
2023-03-22T12:45:30.011Z,41.23
2023-03-22T12:49:29.918Z,51.94
2023-03-22T12:53:29.911Z,39.42
2023-03-22T12:57:29.880Z,49.65
2023-03-22T13:01:29.907Z,50.81
2023-03-22T13:05:29.786Z,41.11
2023-03-22T13:09:29.787Z,39.90
2023-03-22T13:13:29.713Z,27.22
2023-03-22T13:17:29.837Z,53.94
2023-03-22T13:21:29.657Z,104.50
2023-03-22T13:25:29.606Z,94.43
2023-03-22T13:29:29.551Z,95.21
2023-03-22T13:33:29.517Z,108.12
2023-03-22T13:37:29.645Z,109.59
2023-03-22T13:41:29.816Z,113.70
2023-03-22T13:45:29.863Z,116.40
2023-03-22T13:49:29.944Z,127.31
2023-03-22T13:53:30.053Z,122.25
2023-03-22T13:57:30.097Z,124.29
2023-03-22T14:01:30.321Z,133.18
2023-03-22T14:05:30.203Z,141.51
2023-03-22T14:09:30.285Z,130.14
2023-03-22T14:13:30.340Z,146.61
2023-03-22T14:17:30.457Z,155.36
2023-03-22T14:21:30.499Z,146.98
2023-03-22T14:46:21.901Z,25.00
2023-03-22T14:50:21.899Z,41.99
2023-03-22T14:54:21.985Z,35.14
2023-03-22T14:58:21.903Z,25.71
2023-03-22T15:02:21.947Z,35.21
2023-03-22T15:06:21.511Z,53.65
2023-03-22T15:10:21.507Z,47.51
2023-03-22T15:14:21.438Z,48.45
2023-03-22T15:18:21.412Z,44.82
2023-03-22T15:22:21.363Z,58.58
2023-03-22T15:26:21.339Z,67.69
2023-03-22T15:30:21.310Z,65.26
2023-03-22T15:34:21.247Z,64.01
2023-03-22T15:38:27.139Z,82.27
2023-03-22T15:42:22.190Z,88.55
2023-03-22T15:46:21.269Z,88.63
2023-03-22T15:50:21.181Z,89.89
2023-03-22T15:54:21.153Z,106.26
2023-03-22T15:58:23.066Z,85.47
2023-03-22T16:02:21.093Z,96.24
2023-03-22T16:06:21.028Z,85.06
2023-03-22T16:10:21.005Z,84.84
2023-03-22T16:14:20.974Z,91.26
2023-03-22T16:18:20.925Z,112.73
2023-03-22T16:22:20.921Z,107.47
2023-03-22T16:26:20.908Z,113.50
2023-03-22T16:30:20.825Z,133.22
2023-03-22T16:34:20.791Z,145.52
2023-03-22T16:38:20.766Z,125.23
2023-03-22T16:42:20.731Z,150.65
2023-03-22T16:46:20.711Z,247.75
2023-03-22T16:50:20.640Z,249.97
2023-03-22T16:54:20.611Z,239.24
2023-03-22T16:58:20.574Z,239.06
2023-03-22T17:02:20.550Z,241.64
2023-03-22T17:06:20.498Z,242.44
2023-03-22T17:10:20.478Z,233.23
2023-03-22T17:14:20.443Z,212.97
2023-03-22T17:18:20.528Z,245.94
2023-03-22T17:22:20.653Z,229.23
2023-03-22T17:26:20.814Z,211.18
2023-03-22T17:30:20.902Z,186.70
2023-03-22T17:34:20.981Z,190.80
2023-03-22T17:38:27.098Z,172.43
2023-03-22T17:42:22.127Z,159.18
2023-03-22T17:50:21.011Z,139.71
2023-03-22T17:54:57.064Z,137.25
2023-03-22T17:58:35.124Z,138.56
2023-03-22T18:02:27.252Z,134.86
2023-03-22T18:06:21.873Z,154.42
2023-03-22T18:10:20.838Z,149.04
2023-03-22T18:14:27.059Z,156.22
2023-03-22T18:18:21.764Z,159.82
2023-03-22T18:22:20.728Z,157.26
2023-03-22T18:26:28.471Z,141.02
2023-03-22T18:30:21.670Z,151.92
2023-03-22T18:34:20.612Z,167.18
2023-03-22T18:38:55.867Z,182.73
2023-03-22T18:42:25.418Z,201.17
2023-03-22T18:46:21.544Z,194.15
2023-03-22T18:50:20.459Z,197.47
2023-03-22T18:54:20.429Z,226.90
2023-03-22T18:58:20.401Z,215.48
2023-03-22T19:02:35.462Z,210.47
2023-03-22T19:06:21.495Z,189.45
2023-03-22T19:10:20.506Z,212.49
2023-03-22T19:15:11.136Z,212.21
2023-03-22T19:18:21.206Z,188.69
2023-03-22T19:22:20.507Z,185.28
2023-03-22T19:26:20.506Z,206.02
2023-03-22T19:30:20.524Z,189.89
2023-03-22T19:34:20.079Z,202.35
2023-03-22T19:38:20.035Z,185.20
2023-03-22T19:42:20.014Z,194.47
2023-03-22T19:46:20.014Z,194.23
2023-03-22T19:50:19.927Z,183.97
2023-03-22T19:58:19.868Z,193.59
2023-03-22T20:02:19.818Z,201.22
2023-03-22T20:06:20.320Z,207.38
2023-03-22T20:10:19.782Z,185.55
2023-03-22T20:14:19.731Z,192.80
2023-03-22T20:18:19.673Z,180.67
2023-03-22T20:22:19.672Z,185.42
2023-03-22T20:26:19.615Z,177.26
2023-03-22T20:30:19.563Z,186.90
2023-03-22T20:34:19.569Z,174.27
2023-03-22T20:38:19.484Z,175.06
2023-03-22T20:42:19.448Z,187.20
2023-03-22T20:46:19.429Z,185.34
2023-03-22T20:50:19.397Z,181.02
2023-03-22T20:54:19.584Z,181.67
2023-03-22T20:58:19.306Z,178.54
2023-03-22T21:02:19.258Z,178.78
2023-03-22T21:06:19.244Z,174.36
2023-03-22T21:10:19.196Z,171.81
2023-03-22T21:14:19.157Z,182.52
2023-03-22T21:18:19.120Z,185.35
2023-03-22T21:22:19.101Z,176.50
2023-03-22T21:26:19.072Z,169.14
2023-03-22T21:30:19.089Z,199.84
2023-03-22T21:34:19.113Z,170.23
2023-03-22T21:38:19.161Z,189.60
2023-03-22T21:42:19.198Z,195.24
2023-03-22T21:46:19.228Z,194.01
2023-03-22T21:50:19.264Z,183.91
2023-03-22T21:54:19.321Z,199.26
2023-03-22T21:58:19.325Z,198.13
2023-03-22T22:02:19.380Z,193.61
2023-03-22T22:06:19.393Z,198.75
2023-03-22T22:10:19.426Z,192.12
2023-03-22T22:14:19.449Z,205.27
2023-03-22T22:18:19.497Z,199.80
2023-03-22T22:22:19.543Z,192.71
2023-03-22T22:26:19.618Z,187.51
2023-03-22T22:30:19.741Z,186.80
2023-03-22T22:34:19.722Z,206.77
2023-03-22T22:38:19.768Z,196.09
2023-03-22T22:42:19.833Z,192.63
2023-03-22T22:46:19.897Z,195.60
2023-03-22T22:50:19.957Z,178.50
2023-03-22T22:54:20.056Z,191.80
2023-03-22T22:58:20.104Z,200.23
2023-03-22T23:02:20.150Z,191.43
2023-03-22T23:06:20.233Z,192.91
2023-03-22T23:10:20.297Z,191.50
2023-03-22T23:14:21.870Z,195.46
2023-03-22T23:18:20.329Z,189.66
2023-03-22T23:22:20.291Z,193.36
2023-03-22T23:26:20.246Z,194.01
2023-03-22T23:30:20.228Z,188.52
2023-03-22T23:34:20.169Z,199.02
2023-03-22T23:38:20.129Z,197.82
2023-03-22T23:42:20.103Z,200.02
2023-03-22T23:46:20.051Z,190.28
2023-03-22T23:50:20.027Z,184.56
2023-03-22T23:54:19.998Z,192.09
2023-03-22T23:58:19.941Z,193.18
